• Join FlightAware (Why Join?)
  • Login
  • US Flag 
Rudolph Flight #1: Arrived! 
10:28PM EST


 

Airport Tracker/Info


-or-


 

Live Flight TrackerFlight Track Log ✈ AAY842 ✈ 03-Aug-2014 ✈ KPIE - KSYR

Flight Track Log - Related Links

Times and Time Zones

All times are in EDT time to prevent confusion due to time zone crossing. See the AAY842 flight status page for this flight to view local times or setup timezone preferences in your user account.

Time Position Orientation Groundspeed Altitude Reporting Facility
EDT Latitude Longitude Course Direction KTS MPH feet Rate Location/Type
07:31AM 27.9333 -82.7000 24° Northeast 161 185 900  Level Tampa TRACON
07:31AM 27.9667 -82.6833 24° Northeast 171 197 2,000 1,740 Climbing Tampa TRACON
07:33AM 28.0683 -82.6761 North 214 246 5,300 2,160 Climbing Jacksonville Center
07:34AM 28.1478 -82.6689 North 253 291 8,300 2,700 Climbing Jacksonville Center
07:35AM 28.2289 -82.6664 North 276 318 10,800 1,980 Climbing Jacksonville Center
07:36AM 28.3208 -82.6614 North 301 346 12,300 1,500 Climbing Jacksonville Center
07:37AM 28.4272 -82.6567 North 341 392 13,900 1,800 Climbing Jacksonville Center
07:38AM 28.5378 -82.6514 North 377 434 16,000 1,980 Climbing Jacksonville Center
07:39AM 28.6567 -82.6442 North 407 468 17,900 1,800 Climbing Jacksonville Center
07:40AM 28.7736 -82.6392 North 418 481 19,600 1,500 Climbing Jacksonville Center
07:41AM 28.8967 -82.6317 North 429 494 21,000 960 Climbing Jacksonville Center
07:42AM 29.0242 -82.6267 North 440 506 21,600 1,020 Climbing Jacksonville Center
07:43AM 29.1514 -82.6192 North 445 512 23,100 1,500 Climbing Jacksonville Center
07:44AM 29.2786 -82.6142 North 445 512 24,700 1,380 Climbing Jacksonville Center
07:45AM 29.4103 -82.6064 North 457 526 25,900 1,200 Climbing Jacksonville Center
07:46AM 29.5417 -82.5989 North 463 533 27,100 1,380 Climbing Jacksonville Center
07:47AM 29.6567 -82.5939 North 463 533 28,700 1,380 Climbing Jacksonville Center
07:48AM 29.7839 -82.5886 North 458 527 29,900 1,200 Climbing Jacksonville Center
07:49AM 29.9133 -82.5786 North 458 527 31,200 1,200 Climbing Jacksonville Center
07:50AM 30.0386 -82.5783 360° North 452 520 32,300 900 Climbing Jacksonville Center
07:51AM 30.1639 -82.5706 North 452 520 33,000 300 Climbing Jacksonville Center
07:52AM 30.2933 -82.5653 North 452 520 33,000  Level Jacksonville Center
07:53AM 30.4206 -82.5578 North 457 526 33,000  Level Jacksonville Center
07:54AM 30.5519 -82.5356 North 457 526 33,000  Level Jacksonville Center
07:55AM 30.6750 -82.4892 18° North 462 532 33,000  Level Jacksonville Center
07:56AM 30.8003 -82.4378 19° North 468 539 33,000  Level Jacksonville Center
07:57AM 30.9294 -82.3889 18° North 473 544 33,000  Level Jacksonville Center
07:58AM 31.0544 -82.3397 19° North 473 544 33,000  Level Jacksonville Center
07:59AM 31.1797 -82.2903 19° North 473 544 33,000  Level Jacksonville Center
08:00AM 31.3067 -82.2386 19° North 473 544 33,000 -60 Level Jacksonville Center
08:01AM 31.4339 -82.1864 19° North 473 544 32,900  Descending Jacksonville Center
08:02AM 31.5631 -82.1342 19° North 478 550 33,000  Climbing Jacksonville Center
08:03AM 31.6983 -82.0794 19° North 478 550 33,000  Level Jacksonville Center
08:04AM 31.8150 -82.0344 18° North 483 556 33,000  Level Jacksonville Center
08:05AM 31.9544 -81.9769 19° North 483 556 33,000  Level Jacksonville Center
08:06AM 32.0792 -81.9192 21° North 490 564 33,000  Level Jacksonville Center
08:07AM 32.1958 -81.8664 21° North 490 564 33,000  Level Jacksonville Center
08:08AM 32.3331 -81.8008 22° Northeast 490 564 33,000  Level Jacksonville Center
08:09AM 32.4597 -81.7403 22° Northeast 490 564 33,000  Level Jacksonville Center
08:10AM 32.5742 -81.6847 22° Northeast 490 564 33,000  Level Jacksonville Center
08:11AM 32.6989 -81.6214 23° Northeast 490 564 33,000  Level Jacksonville Center
08:12AM 32.8275 -81.5625 21° North 490 564 33,000  Level Jacksonville Center
08:13AM 32.9542 -81.5014 22° Northeast 490 564 33,000  Level Jacksonville Center
08:14AM 33.0808 -81.4372 23° Northeast 490 564 33,000  Level Jacksonville Center
08:15AM 33.2094 -81.3781 21° North 490 564 33,000  Level Jacksonville Center
08:16AM 33.3361 -81.3139 23° Northeast 490 564 33,000  Level Jacksonville Center
08:17AM 33.4667 -81.2492 22° Northeast 490 564 33,000  Level Jacksonville Center
08:18AM 33.6058 -81.1844 21° North 490 564 33,000  Level Jacksonville Center
08:19AM 33.7342 -81.1194 23° Northeast 490 564 33,000  Level Jacksonville Center
08:20AM 33.8481 -81.0569 24° Northeast 495 570 33,000  Level Jacksonville Center
08:21AM 33.9953 -80.9889 21° North 495 570 33,000  Level Jacksonville Center
08:22AM 34.1217 -80.9308 21° North 495 570 33,000  Level Jacksonville Center
08:24AM 34.3181 -80.8344 22° Northeast 491 565 33,000  Level Atlanta Center
08:25AM 34.4583 -80.7689 21° North 496 571 33,000  Level Atlanta Center
08:26AM 34.5942 -80.7006 22° Northeast 504 580 33,000  Level Atlanta Center
08:27AM 34.7281 -80.6369 21° North 515 593 33,000  Level Atlanta Center
08:28AM 34.8636 -80.5656 23° Northeast 515 593 33,000  Level Atlanta Center
08:29AM 34.9975 -80.5017 21° North 515 593 33,000  Level Atlanta Center
08:30AM 35.1333 -80.4325 23° Northeast 515 593 33,000  Level Atlanta Center
08:31AM 35.2731 -80.3628 22° Northeast 525 604 33,000  Level Atlanta Center
08:32AM 35.4089 -80.2981 21° North 525 604 33,000  Level Atlanta Center
08:33AM 35.5442 -80.2256 24° Northeast 525 604 33,000  Level Atlanta Center
08:34AM 35.6819 -80.1553 23° Northeast 531 611 33,000  Level Atlanta Center
08:35AM 35.8203 -80.1128 14° North 526 605 33,000  Level Atlanta Center
08:37AM 36.1153 -80.0917 North 524 603 33,000  Level Washington Center
08:38AM 36.2547 -80.0431 16° North 518 596 33,000  Level Washington Center
08:39AM 36.3889 -79.9706 24° Northeast 518 596 33,000  Level Washington Center
08:40AM 36.5231 -79.8981 23° Northeast 518 596 33,000  Level Washington Center
08:41AM 36.6569 -79.8303 22° Northeast 518 596 33,000  Level Washington Center
08:42AM 36.7928 -79.7600 23° Northeast 518 596 33,000  Level Washington Center
08:43AM 36.9267 -79.6892 23° Northeast 518 596 33,000  Level Washington Center
08:44AM 37.0583 -79.6208 22° Northeast 513 590 33,000  Level Washington Center
08:45AM 37.1922 -79.5497 23° Northeast 513 590 33,000  Level Washington Center
08:46AM 37.3261 -79.4756 24° Northeast 513 590 33,000  Level Washington Center
08:47AM 37.4494 -79.4033 25° Northeast 520 598 33,000  Level Washington Center
08:48AM 37.6019 -79.3325 20° North 532 612 33,000  Level Washington Center
08:49AM 37.7122 -79.2722 23° Northeast 527 606 33,000  Level Washington Center
08:50AM 37.8647 -79.1928 22° Northeast 527 606 33,000  Level Washington Center
08:51AM 38.0025 -79.1203 23° Northeast 527 606 33,000  Level Washington Center
08:52AM 38.1361 -79.0447 24° Northeast 522 601 33,000  Level Washington Center
08:53AM 38.2758 -78.9692 23° Northeast 522 601 33,000  Level Washington Center
08:54AM 38.4136 -78.8961 23° Northeast 522 601 33,000  Level Washington Center
08:55AM 38.5369 -78.8061 30° Northeast 516 594 33,000  Level Washington Center
08:56AM 38.6725 -78.7189 27° Northeast 522 601 33,000  Level Washington Center
08:57AM 38.8228 -78.6400 22° Northeast 522 601 33,000  Level Washington Center
08:58AM 38.9600 -78.5628 24° Northeast 529 609 33,000  Level Washington Center
08:59AM 39.0975 -78.4883 23° Northeast 529 609 33,000  Level Washington Center
09:00AM 39.2367 -78.4133 23° Northeast 529 609 33,000  Level Washington Center
09:01AM 39.3719 -78.3353 24° Northeast 529 609 33,000  Level Washington Center
09:03AM 39.6450 -78.1833 23° Northeast 537 618 33,000  Level New York Center
09:04AM 39.7811 -78.1086 23° Northeast 532 612 33,000  Level New York Center
09:05AM 39.9150 -78.0306 24° Northeast 532 612 33,000  Level New York Center
09:06AM 40.0514 -77.9525 24° Northeast 532 612 33,000  Level New York Center
09:07AM 40.1833 -77.8736 25° Northeast 527 606 33,000  Level New York Center
09:07AM 40.2667 -77.8247 24° Northeast 531 611 33,000  Level Cleveland Center
09:08AM 40.3992 -77.7489 24° Northeast 531 611 33,000 -60 Level Cleveland Center
09:09AM 40.5306 -77.6717 24° Northeast 525 604 32,900 -540 Descending Cleveland Center
09:11AM 40.6631 -77.5953 24° Northeast 525 604 31,900 -960 Descending Cleveland Center
09:12AM 40.8214 -77.5031 24° Northeast 525 604 31,000 -480 Descending Cleveland Center
09:13AM 40.9533 -77.4258 24° Northeast 525 604 31,000 -780 Level Cleveland Center
09:14AM 41.0856 -77.3475 24° Northeast 525 604 29,400 -2,040 Descending Cleveland Center
09:15AM 41.2175 -77.2689 24° Northeast 525 604 26,800 -2,520 Descending Cleveland Center
09:16AM 41.3456 -77.1947 23° Northeast 516 594 24,200 -1,740 Descending Cleveland Center
09:17AM 41.4964 -77.1025 25° Northeast 493 567 23,000 -540 Descending New York Center
09:18AM 41.6208 -77.0311 23° Northeast 488 562 23,000  Level New York Center
09:19AM 41.7436 -76.9564 24° Northeast 482 555 23,000 -720 Level New York Center
09:20AM 41.8661 -76.8814 25° Northeast 482 555 21,600 -1,860 Descending New York Center
09:21AM 41.9822 -76.8114 24° Northeast 471 542 19,300 -2,040 Descending New York Center
09:22AM 42.1003 -76.7383 25° Northeast 449 517 17,500 -1,800 Descending New York Center
09:23AM 42.2078 -76.6722 24° Northeast 433 498 15,700 -1,920 Descending New York Center
09:24AM 42.3153 -76.6033 25° Northeast 428 493 13,700 -1,920 Descending New York Center
09:25AM 42.4139 -76.5447 24° Northeast 411 473 11,800 -1,500 Descending New York Center
09:26AM 42.4917 -76.4956 25° Northeast 391 450 11,000 -480 Descending Boston Center
09:27AM 42.5850 -76.4361 25° Northeast 378 435 11,000  Level Boston Center
09:28AM 42.6644 -76.3508 38° Northeast 368 423 11,000  Level Boston Center
09:29AM 42.7483 -76.2761 33° Northeast 367 422 11,000 -840 Level Boston Center
09:30AM 42.8331 -76.2244 24° Northeast 299 344 9,400 -2,040 Descending Boston Center
09:31AM 42.9069 -76.1808 23° Northeast 280 322 7,000 -2,220 Descending Boston Center
09:32AM 42.9758 -76.1414 23° Northeast 272 313 4,900 -1,680 Descending Boston Center
09:33AM 43.0222 -76.0686 49° Northeast 244 281 3,600 -960 Descending Boston Center
09:34AM 43.0572 -76.0008 55° Northeast 212 244 3,000 -600 Descending Boston Center
09:35AM 43.0975 -75.9522 41° Northeast 181 208 2,500 -660 Descending Boston Center
09:36AM 43.1119 -76.0061 290° West 154 177 1,700 -840 Descending Boston Center
09:37AM 43.1092 -76.0608 266° West 138 159 900 -840 Descending Boston Center